createdAt,value
2022-11-29T00:02:19.075Z,-1.06
2022-11-29T00:04:50.137Z,-1.09
2022-11-29T00:07:21.481Z,-1.05
2022-11-29T00:09:52.424Z,-1.11
2022-11-29T00:12:23.338Z,-1.15
2022-11-29T00:14:54.170Z,-1.11
2022-11-29T00:17:25.127Z,-1.07
2022-11-29T00:19:56.037Z,-1.09
2022-11-29T00:22:26.972Z,-1.04
2022-11-29T00:24:57.768Z,-1.06
2022-11-29T00:27:28.691Z,-1.12
2022-11-29T00:29:59.505Z,-1.07
2022-11-29T00:32:32.403Z,-1.01
2022-11-29T00:35:09.289Z,-1.12
2022-11-29T00:37:35.846Z,-1.11
2022-11-29T00:40:07.433Z,-1.11
2022-11-29T00:42:38.677Z,-1.10
2022-11-29T00:45:09.883Z,-1.17
2022-11-29T00:47:40.816Z,-1.14
2022-11-29T00:50:12.010Z,-1.16
2022-11-29T00:52:43.045Z,-1.11
2022-11-29T00:55:13.861Z,-1.17
2022-11-29T00:57:44.694Z,-1.20
2022-11-29T01:00:16.051Z,-1.13
2022-11-29T01:02:47.050Z,-1.16
2022-11-29T01:05:17.950Z,-1.03
2022-11-29T01:07:48.761Z,-1.10
2022-11-29T01:10:19.835Z,-1.12
2022-11-29T01:12:51.158Z,-1.17
2022-11-29T01:15:22.220Z,-1.16
2022-11-29T01:17:53.639Z,-1.23
2022-11-29T01:20:24.566Z,-1.22
2022-11-29T01:22:55.400Z,-1.23
2022-11-29T01:25:26.396Z,-1.15
2022-11-29T01:27:57.496Z,-1.24
2022-11-29T01:30:28.356Z,-1.19
2022-11-29T01:32:59.279Z,-1.28
2022-11-29T01:35:30.235Z,-1.32
2022-11-29T01:38:01.333Z,-1.34
2022-11-29T01:40:32.755Z,-1.35
2022-11-29T01:43:19.355Z,-1.32
2022-11-29T01:45:51.133Z,-1.23
2022-11-29T01:48:26.297Z,-1.26
2022-11-29T01:50:58.682Z,-1.21
2022-11-29T01:53:29.973Z,-1.35
2022-11-29T01:56:02.421Z,-1.38
2022-11-29T01:58:34.250Z,-1.39
2022-11-29T02:01:05.172Z,-1.26
2022-11-29T02:03:36.180Z,-1.29
2022-11-29T02:06:07.844Z,-1.26
2022-11-29T02:08:39.936Z,-1.47
2022-11-29T02:11:17.984Z,-1.51
2022-11-29T02:13:50.902Z,-1.49
2022-11-29T02:16:23.156Z,-1.54
2022-11-29T02:18:58.273Z,-1.52
2022-11-29T02:21:34.009Z,-1.43
2022-11-29T02:24:06.681Z,-1.37
2022-11-29T02:26:39.149Z,-1.53
2022-11-29T02:29:27.606Z,-1.55
2022-11-29T02:31:59.888Z,-1.54
2022-11-29T02:34:41.816Z,-1.46
2022-11-29T02:37:14.376Z,-1.46
2022-11-29T02:39:58.634Z,-1.56
2022-11-29T02:42:35.608Z,-1.62
2022-11-29T02:45:11.259Z,-1.50
2022-11-29T02:47:43.712Z,-1.62
2022-11-29T02:50:19.001Z,-1.64
2022-11-29T02:52:51.324Z,-1.65
2022-11-29T02:55:23.629Z,-1.61
2022-11-29T02:58:08.196Z,-1.56
2022-11-29T03:00:40.853Z,-1.62
2022-11-29T03:03:13.163Z,-1.63
2022-11-29T03:05:48.471Z,-1.68
2022-11-29T03:08:23.755Z,-1.65
2022-11-29T03:11:05.145Z,-1.72
2022-11-29T03:13:40.664Z,-1.76
2022-11-29T03:16:12.913Z,-1.75
2022-11-29T03:18:51.477Z,-1.73
2022-11-29T03:21:35.814Z,-1.71
2022-11-29T03:24:08.172Z,-1.71
2022-11-29T03:26:40.477Z,-1.69
2022-11-29T03:29:29.346Z,-1.69
2022-11-29T03:32:04.734Z,-1.68
2022-11-29T03:34:39.820Z,-1.71
2022-11-29T03:37:21.378Z,-1.69
2022-11-29T03:39:53.852Z,-1.75
2022-11-29T03:42:29.064Z,-1.78
2022-11-29T03:45:01.811Z,-1.74
2022-11-29T03:47:34.366Z,-1.74
2022-11-29T03:50:10.371Z,-1.59
2022-11-29T03:52:42.757Z,-1.74
2022-11-29T03:55:14.994Z,-1.70
2022-11-29T03:57:47.630Z,-1.81
2022-11-29T04:00:19.580Z,-1.79
2022-11-29T04:02:54.954Z,-1.90
2022-11-29T04:05:36.317Z,-1.88
2022-11-29T04:08:20.298Z,-1.88
2022-11-29T04:10:58.732Z,-1.94
2022-11-29T04:13:31.284Z,-1.96
2022-11-29T04:16:20.281Z,-1.89
2022-11-29T04:18:55.659Z,-1.83
2022-11-29T04:21:37.280Z,-1.85
2022-11-29T04:24:12.665Z,-1.95
2022-11-29T04:27:01.464Z,-1.96
2022-11-29T04:29:50.312Z,-1.98
2022-11-29T04:32:39.769Z,-1.98
2022-11-29T04:35:12.985Z,-2.02
2022-11-29T04:37:48.115Z,-2.05
2022-11-29T04:40:27.317Z,-2.00
2022-11-29T04:43:05.942Z,-2.05
2022-11-29T04:45:47.297Z,-2.00
2022-11-29T04:48:36.328Z,-2.04
2022-11-29T04:51:08.939Z,-2.02
2022-11-29T04:53:57.978Z,-2.05
2022-11-29T04:56:41.016Z,-1.99
2022-11-29T04:59:29.046Z,-1.96
2022-11-29T05:02:01.546Z,-2.04
2022-11-29T05:04:34.811Z,-2.00
2022-11-29T05:07:11.149Z,-1.89
2022-11-29T05:09:49.735Z,-1.81
2022-11-29T05:12:34.270Z,-1.90
2022-11-29T05:15:12.878Z,-1.96
2022-11-29T05:17:46.660Z,-1.96
2022-11-29T05:20:36.764Z,-1.94
2022-11-29T05:23:10.528Z,-1.90
2022-11-29T05:25:49.213Z,-1.87
2022-11-29T05:28:22.012Z,-1.83
2022-11-29T05:31:11.991Z,-1.78
2022-11-29T05:33:56.842Z,-1.76
2022-11-29T05:36:46.241Z,-1.75
2022-11-29T05:39:18.869Z,-1.74
2022-11-29T05:41:52.019Z,-1.72
2022-11-29T05:44:37.216Z,-1.71
2022-11-29T05:47:13.042Z,-1.65
2022-11-29T05:50:01.680Z,-1.67
2022-11-29T05:52:53.249Z,-1.65
2022-11-29T05:55:25.815Z,-1.67
2022-11-29T05:58:01.150Z,-1.68
2022-11-29T06:00:36.608Z,-1.64
2022-11-29T06:03:09.411Z,-1.58
2022-11-29T06:05:54.402Z,-1.63
2022-11-29T06:08:43.750Z,-1.60
2022-11-29T06:11:19.090Z,-1.59
2022-11-29T06:14:00.616Z,-1.63
2022-11-29T06:16:40.319Z,-1.64
2022-11-29T06:19:29.608Z,-1.63
2022-11-29T06:22:02.381Z,-1.65
2022-11-29T06:24:41.772Z,-1.55
2022-11-29T06:27:17.423Z,-1.65
2022-11-29T06:29:49.836Z,-1.60
2022-11-29T06:32:34.987Z,-1.66
2022-11-29T06:35:07.973Z,-1.74
2022-11-29T06:37:43.423Z,-1.68
2022-11-29T06:40:16.151Z,-1.64
2022-11-29T06:42:49.536Z,-1.61
2022-11-29T06:45:21.962Z,-1.58
2022-11-29T06:47:54.339Z,-1.63
2022-11-29T06:50:36.474Z,-1.68
2022-11-29T06:53:09.381Z,-1.63
2022-11-29T06:55:42.981Z,-1.62
2022-11-29T06:58:32.883Z,-1.68
2022-11-29T07:01:14.250Z,-1.61
2022-11-29T07:03:53.561Z,-1.67
2022-11-29T07:06:29.313Z,-1.68
2022-11-29T07:09:02.244Z,-1.59
2022-11-29T07:11:34.190Z,-1.62
2022-11-29T07:14:06.351Z,-1.64
2022-11-29T07:16:57.061Z,-1.65
2022-11-29T07:19:25.799Z,-1.60
2022-11-29T07:21:59.066Z,-1.73
2022-11-29T07:24:31.749Z,-1.73
2022-11-29T07:27:25.710Z,-1.75
2022-11-29T07:29:58.119Z,-1.70
2022-11-29T07:32:37.054Z,-1.58
2022-11-29T07:35:09.801Z,-1.57
2022-11-29T07:37:48.529Z,-1.44
2022-11-29T07:40:27.657Z,-1.49
2022-11-29T07:43:06.212Z,-1.46
2022-11-29T07:45:37.476Z,-1.42
2022-11-29T07:48:08.725Z,-1.37
2022-11-29T07:50:40.934Z,-1.39
2022-11-29T07:53:19.508Z,-1.38
2022-11-29T07:55:51.810Z,-1.32
2022-11-29T07:58:24.955Z,-1.34
2022-11-29T08:00:56.174Z,-1.43
2022-11-29T08:03:27.758Z,-1.41
2022-11-29T08:05:59.749Z,-1.52
2022-11-29T08:08:31.265Z,-1.55
2022-11-29T08:11:02.235Z,-1.53
2022-11-29T08:13:33.799Z,-1.49
2022-11-29T08:16:05.476Z,-1.36
2022-11-29T08:18:40.309Z,-1.28
2022-11-29T08:21:12.269Z,-1.24
2022-11-29T08:23:43.323Z,-1.20
2022-11-29T08:26:15.191Z,-1.09
2022-11-29T08:28:46.337Z,-1.06
2022-11-29T08:31:17.677Z,-1.00
2022-11-29T08:33:48.731Z,-0.97
2022-11-29T08:36:22.604Z,-0.96
2022-11-29T08:39:00.094Z,-0.97
2022-11-29T08:41:27.155Z,-0.90
2022-11-29T08:43:59.013Z,-0.79
2022-11-29T08:46:31.857Z,-0.67
2022-11-29T08:49:03.196Z,-0.59
2022-11-29T08:51:34.699Z,-0.47
2022-11-29T08:54:05.579Z,-0.46
2022-11-29T08:59:10.091Z,-0.38
2022-11-29T09:01:41.671Z,-0.33
2022-11-29T09:04:13.513Z,-0.27
2022-11-29T09:06:46.170Z,-0.13
2022-11-29T09:09:17.651Z,-0.11
2022-11-29T09:11:49.759Z,-0.12
2022-11-29T09:14:22.937Z,-0.08
2022-11-29T09:16:54.288Z,-0.11
2022-11-29T09:19:25.923Z,-0.13
2022-11-29T09:21:57.301Z,-0.17
2022-11-29T09:24:28.465Z,-0.15
2022-11-29T09:26:59.987Z,-0.09
2022-11-29T09:29:31.218Z,0.00
2022-11-29T09:32:02.307Z,0.04
2022-11-29T09:34:33.438Z,0.04
2022-11-29T09:37:05.839Z,0.08
2022-11-29T09:39:36.893Z,0.01
2022-11-29T09:42:22.071Z,0.02
2022-11-29T09:44:57.429Z,0.00
2022-11-29T09:47:46.563Z,-0.04
2022-11-29T09:50:28.355Z,-0.05
2022-11-29T09:53:00.883Z,-0.10
2022-11-29T09:55:50.504Z,-0.12
2022-11-29T09:58:23.656Z,-0.12
2022-11-29T10:00:57.426Z,-0.10
2022-11-29T10:03:36.500Z,-0.13
2022-11-29T10:06:08.916Z,-0.17
2022-11-29T10:08:47.228Z,-0.23
2022-11-29T10:11:38.071Z,-0.36
2022-11-29T10:14:13.616Z,-0.49
2022-11-29T10:16:46.444Z,-0.53
2022-11-29T10:19:22.288Z,-0.60
2022-11-29T10:21:55.674Z,-0.64
2022-11-29T10:24:28.902Z,-0.67
2022-11-29T10:27:01.226Z,-0.72
2022-11-29T10:29:32.338Z,-0.77
2022-11-29T10:32:10.051Z,-0.81
2022-11-29T10:34:38.980Z,-0.78
2022-11-29T10:37:11.270Z,-0.79
2022-11-29T10:39:47.233Z,-0.87
2022-11-29T10:42:38.120Z,-0.88
2022-11-29T10:45:19.608Z,-0.89
2022-11-29T10:47:53.652Z,-0.86
2022-11-29T10:50:26.126Z,-0.81
2022-11-29T10:53:00.238Z,-0.78
2022-11-29T10:55:33.491Z,-0.77
2022-11-29T10:58:12.736Z,-0.76
2022-11-29T11:00:45.819Z,-0.77
2022-11-29T11:03:18.320Z,-0.78
2022-11-29T11:06:00.027Z,-0.78
2022-11-29T11:08:32.134Z,-0.76
2022-11-29T11:11:04.662Z,-0.71
2022-11-29T11:13:36.860Z,-0.71
2022-11-29T11:16:10.759Z,-0.68
2022-11-29T11:18:41.692Z,-0.63
2022-11-29T11:21:14.125Z,-0.61
2022-11-29T11:24:04.013Z,-0.59
2022-11-29T11:26:45.755Z,-0.59
2022-11-29T11:29:18.218Z,-0.58
2022-11-29T11:31:53.810Z,-0.54
2022-11-29T11:34:26.734Z,-0.48
2022-11-29T11:37:17.915Z,-0.53
2022-11-29T11:39:50.386Z,-0.51
2022-11-29T11:42:38.359Z,-0.49
2022-11-29T11:45:14.133Z,-0.49
2022-11-29T11:47:46.718Z,-0.52
2022-11-29T11:50:19.097Z,-0.53
2022-11-29T11:52:54.202Z,-0.55
2022-11-29T11:55:30.371Z,-0.58
2022-11-29T11:58:09.269Z,-0.58
2022-11-29T12:03:23.209Z,-0.67
2022-11-29T12:05:55.666Z,-0.74
2022-11-29T12:08:28.201Z,-0.75
2022-11-29T12:11:06.907Z,-0.86
2022-11-29T12:13:36.021Z,-0.92
2022-11-29T12:16:09.207Z,-0.99
2022-11-29T12:18:48.044Z,-1.02
2022-11-29T12:21:20.460Z,-1.14
2022-11-29T12:23:59.796Z,-1.23
2022-11-29T12:26:56.585Z,-1.31
2022-11-29T12:29:05.136Z,-1.36
2022-11-29T12:31:54.471Z,-1.42
2022-11-29T12:34:32.735Z,-1.49
2022-11-29T12:37:05.565Z,-1.58
2022-11-29T12:39:39.061Z,-1.62
2022-11-29T12:42:17.441Z,-1.70
2022-11-29T12:44:59.063Z,-1.80
2022-11-29T12:47:36.240Z,-1.90
2022-11-29T12:50:15.719Z,-1.96
2022-11-29T12:52:57.439Z,-1.99
2022-11-29T12:55:36.097Z,-2.10
2022-11-29T12:58:11.962Z,-2.19
2022-11-29T13:00:45.001Z,-2.31
2022-11-29T13:03:23.073Z,-2.39
2022-11-29T13:06:08.295Z,-2.46
2022-11-29T13:08:44.201Z,-2.52
2022-11-29T13:11:32.948Z,-2.58
2022-11-29T13:17:01.413Z,-2.75
2022-11-29T13:19:34.280Z,-2.86
2022-11-29T13:22:16.027Z,-2.97
2022-11-29T13:24:48.695Z,-3.09
2022-11-29T13:27:40.374Z,-3.14
2022-11-29T13:30:13.323Z,-3.25
2022-11-29T13:32:45.901Z,-3.34
2022-11-29T13:35:22.767Z,-3.39
2022-11-29T13:37:55.649Z,-3.46
2022-11-29T13:40:40.497Z,-3.53
2022-11-29T13:43:13.933Z,-3.59
2022-11-29T13:45:56.141Z,-3.64
2022-11-29T13:48:31.639Z,-3.70
2022-11-29T13:51:20.586Z,-3.68
2022-11-29T13:53:52.557Z,-3.76
2022-11-29T13:56:29.831Z,-3.81
2022-11-29T13:59:01.982Z,-3.89
2022-11-29T14:01:35.573Z,-3.95
2022-11-29T14:04:17.260Z,-3.99
2022-11-29T14:06:49.846Z,-4.00
2022-11-29T14:09:31.519Z,-4.05
2022-11-29T14:12:07.394Z,-4.09
2022-11-29T14:14:43.079Z,-4.15
2022-11-29T14:17:27.600Z,-4.20
2022-11-29T14:19:59.975Z,-4.24
2022-11-29T14:22:32.404Z,-4.24
2022-11-29T14:25:21.731Z,-4.26
2022-11-29T14:27:39.495Z,-4.31
2022-11-29T14:30:28.936Z,-4.35
2022-11-29T14:33:07.710Z,-4.38
2022-11-29T14:35:40.713Z,-4.43
2022-11-29T14:38:16.408Z,-4.48
2022-11-29T14:40:50.681Z,-4.53
2022-11-29T14:43:34.961Z,-4.42
2022-11-29T14:46:20.325Z,-4.39
2022-11-29T14:48:59.733Z,-4.46
2022-11-29T14:51:32.339Z,-4.52
2022-11-29T14:54:07.937Z,-4.58
2022-11-29T14:56:42.521Z,-4.59
2022-11-29T14:59:32.259Z,-4.63
2022-11-29T15:02:04.943Z,-4.63
2022-11-29T15:04:37.546Z,-4.56
2022-11-29T15:07:10.570Z,-4.56
2022-11-29T15:09:42.704Z,-4.59
2022-11-29T15:12:17.870Z,-4.67
2022-11-29T15:15:08.268Z,-4.73
2022-11-29T15:17:40.681Z,-4.76
2022-11-29T15:20:16.088Z,-4.78
2022-11-29T15:22:48.872Z,-4.82
2022-11-29T15:25:24.696Z,-4.84
2022-11-29T15:27:57.326Z,-4.87
2022-11-29T15:30:41.591Z,-4.88
2022-11-29T15:33:23.197Z,-4.77
2022-11-29T15:35:55.439Z,-4.84
2022-11-29T15:38:27.547Z,-4.84
2022-11-29T15:40:59.249Z,-4.79
2022-11-29T15:43:32.047Z,-4.80
2022-11-29T15:46:04.092Z,-4.80
2022-11-29T15:48:35.323Z,-4.84
2022-11-29T15:51:07.879Z,-4.80
2022-11-29T15:53:47.454Z,-4.90
2022-11-29T15:56:32.092Z,-4.90
2022-11-29T15:59:05.279Z,-4.89
2022-11-29T16:01:37.355Z,-4.79
2022-11-29T16:04:09.823Z,-4.76
2022-11-29T16:06:45.031Z,-4.87
2022-11-29T16:09:17.617Z,-4.88
2022-11-29T16:11:49.310Z,-4.97
2022-11-29T16:14:22.560Z,-4.92
2022-11-29T16:16:55.742Z,-5.00
2022-11-29T16:19:31.672Z,-5.07
2022-11-29T16:22:04.068Z,-4.98
2022-11-29T16:24:35.396Z,-4.91
2022-11-29T16:27:07.471Z,-5.07
2022-11-29T16:29:40.131Z,-5.06
2022-11-29T16:32:15.890Z,-5.11
2022-11-29T16:34:47.393Z,-5.14
2022-11-29T16:37:23.274Z,-5.16
2022-11-29T16:39:56.506Z,-5.19
2022-11-29T16:42:29.161Z,-5.16
2022-11-29T16:45:05.174Z,-5.22
2022-11-29T16:47:45.176Z,-5.24
2022-11-29T16:50:22.989Z,-5.25
2022-11-29T16:52:56.810Z,-5.25
2022-11-29T16:55:27.447Z,-5.21
2022-11-29T16:57:59.289Z,-5.23
2022-11-29T17:00:32.559Z,-5.21
2022-11-29T17:03:05.281Z,-5.24
2022-11-29T17:05:40.248Z,-5.16
2022-11-29T17:08:09.036Z,-5.18
2022-11-29T17:10:39.963Z,-5.20
2022-11-29T17:13:12.839Z,-5.26
2022-11-29T17:15:44.014Z,-5.30
2022-11-29T17:18:15.154Z,-5.33
2022-11-29T17:20:46.176Z,-5.38
2022-11-29T17:23:17.419Z,-5.46
2022-11-29T17:25:50.191Z,-5.53
2022-11-29T17:28:21.857Z,-5.56
2022-11-29T17:30:53.401Z,-5.60
2022-11-29T17:33:24.787Z,-5.59
2022-11-29T17:35:56.185Z,-5.50
2022-11-29T17:38:27.507Z,-5.48
2022-11-29T17:40:58.946Z,-5.46
2022-11-29T17:43:29.999Z,-5.55
2022-11-29T17:46:01.752Z,-5.59
2022-11-29T17:48:33.727Z,-5.60
2022-11-29T17:51:13.491Z,-5.52
2022-11-29T17:53:38.665Z,-5.58
2022-11-29T17:56:11.717Z,-5.58
2022-11-29T17:58:42.961Z,-5.60
2022-11-29T18:01:14.756Z,-5.59
2022-11-29T18:03:46.354Z,-5.57
2022-11-29T18:06:18.908Z,-5.59
2022-11-29T18:08:54.464Z,-5.59
2022-11-29T18:11:27.675Z,-5.56
2022-11-29T18:13:58.857Z,-5.59
2022-11-29T18:16:31.647Z,-5.60
2022-11-29T18:19:04.529Z,-5.60
2022-11-29T18:21:35.920Z,-5.58
2022-11-29T18:24:07.690Z,-5.61
2022-11-29T18:26:38.960Z,-5.62
2022-11-29T18:29:10.064Z,-5.63
2022-11-29T18:31:42.119Z,-5.62
2022-11-29T18:34:13.816Z,-5.57
2022-11-29T18:36:45.898Z,-5.57
2022-11-29T18:39:18.531Z,-5.47
2022-11-29T18:41:50.056Z,-5.48
2022-11-29T18:44:23.333Z,-5.45
2022-11-29T18:46:55.018Z,-5.45
2022-11-29T18:49:25.791Z,-5.49
2022-11-29T18:51:56.660Z,-5.51
2022-11-29T18:54:29.251Z,-5.47
2022-11-29T18:57:00.351Z,-5.52
2022-11-29T18:59:31.115Z,-5.46
2022-11-29T19:02:02.545Z,-5.42
2022-11-29T19:04:33.456Z,-5.43
2022-11-29T19:07:04.765Z,-5.42
2022-11-29T19:09:35.728Z,-5.34
2022-11-29T19:12:07.577Z,-5.33
2022-11-29T19:14:41.806Z,-5.33
2022-11-29T19:17:12.207Z,-5.36
2022-11-29T19:19:43.245Z,-5.37
2022-11-29T19:22:14.618Z,-5.42
2022-11-29T19:24:45.725Z,-5.41
2022-11-29T19:27:17.011Z,-5.45
2022-11-29T19:29:48.042Z,-5.49
2022-11-29T19:32:19.073Z,-5.49
2022-11-29T19:34:49.899Z,-5.49
2022-11-29T19:37:20.783Z,-5.42
2022-11-29T19:39:51.861Z,-5.44
2022-11-29T19:42:22.893Z,-5.39
2022-11-29T19:45:15.815Z,-5.38
2022-11-29T19:47:27.016Z,-5.45
2022-11-29T19:50:02.169Z,-5.48
2022-11-29T19:52:32.201Z,-5.51
2022-11-29T19:55:03.738Z,-5.50
2022-11-29T19:57:34.617Z,-5.55
2022-11-29T20:00:06.006Z,-5.53
2022-11-29T20:02:39.074Z,-5.57
2022-11-29T20:05:12.078Z,-5.58
2022-11-29T20:07:42.929Z,-5.56
2022-11-29T20:10:13.877Z,-5.55
2022-11-29T20:12:44.731Z,-5.57
2022-11-29T20:15:15.525Z,-5.57
2022-11-29T20:17:48.652Z,-5.57
2022-11-29T20:20:19.935Z,-5.56
2022-11-29T20:22:52.250Z,-5.57
2022-11-29T20:25:23.096Z,-5.62
2022-11-29T20:27:54.030Z,-5.61
2022-11-29T20:30:26.102Z,-5.63
2022-11-29T20:32:57.090Z,-5.62
2022-11-29T20:35:28.519Z,-5.61
2022-11-29T20:38:03.755Z,-5.61
2022-11-29T20:40:36.164Z,-5.59
2022-11-29T20:43:14.461Z,-5.59
2022-11-29T20:45:45.573Z,-5.59
2022-11-29T20:48:17.801Z,-5.60
2022-11-29T20:50:50.376Z,-5.59
2022-11-29T20:53:22.827Z,-5.52
2022-11-29T20:55:53.751Z,-5.53
2022-11-29T20:58:26.539Z,-5.56
2022-11-29T21:00:57.733Z,-5.56
2022-11-29T21:03:28.932Z,-5.53
2022-11-29T21:06:01.309Z,-5.56
2022-11-29T21:08:32.213Z,-5.59
2022-11-29T21:11:07.081Z,-5.60
2022-11-29T21:13:38.430Z,-5.57
2022-11-29T21:16:10.859Z,-5.58
2022-11-29T21:18:42.164Z,-5.60
2022-11-29T21:21:14.927Z,-5.62
2022-11-29T21:23:47.305Z,-5.65
2022-11-29T21:26:20.331Z,-5.66
2022-11-29T21:28:52.809Z,-5.68
2022-11-29T21:31:23.928Z,-5.72
2022-11-29T21:33:55.250Z,-5.67
2022-11-29T21:36:26.576Z,-5.67
2022-11-29T21:39:00.951Z,-5.70
2022-11-29T21:41:30.159Z,-5.70
2022-11-29T21:44:08.605Z,-5.72
2022-11-29T21:46:33.702Z,-5.67
2022-11-29T21:49:05.108Z,-5.72
2022-11-29T21:51:36.332Z,-5.71
2022-11-29T21:54:07.244Z,-5.71
2022-11-29T21:56:38.038Z,-5.70
2022-11-29T21:59:08.908Z,-5.62
2022-11-29T22:01:40.084Z,-5.58
2022-11-29T22:04:11.553Z,-5.56
2022-11-29T22:06:42.862Z,-5.61
2022-11-29T22:09:14.162Z,-5.60
2022-11-29T22:11:45.831Z,-5.61
2022-11-29T22:14:18.736Z,-5.64
2022-11-29T22:16:54.162Z,-5.64
2022-11-29T22:19:26.057Z,-5.66
2022-11-29T22:21:58.391Z,-5.62
2022-11-29T22:24:30.826Z,-5.55
2022-11-29T22:27:01.991Z,-5.58
2022-11-29T22:29:33.219Z,-5.60
2022-11-29T22:32:04.090Z,-5.62
2022-11-29T22:34:34.942Z,-5.64
2022-11-29T22:37:05.871Z,-5.63
2022-11-29T22:39:37.280Z,-5.66
2022-11-29T22:42:08.199Z,-5.65
2022-11-29T22:44:39.432Z,-5.67
2022-11-29T22:47:10.348Z,-5.67
2022-11-29T22:49:41.401Z,-5.67
2022-11-29T22:52:12.454Z,-5.66
2022-11-29T22:54:43.894Z,-5.71
2022-11-29T22:57:15.139Z,-5.72
2022-11-29T22:59:46.155Z,-5.70
2022-11-29T23:02:17.607Z,-5.73
2022-11-29T23:04:49.212Z,-5.74
2022-11-29T23:07:20.737Z,-5.75
2022-11-29T23:09:51.615Z,-5.77
2022-11-29T23:12:22.609Z,-5.77
2022-11-29T23:14:56.563Z,-5.80
2022-11-29T23:17:26.011Z,-5.80
2022-11-29T23:19:57.480Z,-5.83
2022-11-29T23:22:28.820Z,-5.84
2022-11-29T23:24:59.708Z,-5.87
2022-11-29T23:27:31.620Z,-5.90
2022-11-29T23:30:02.568Z,-5.92
2022-11-29T23:32:33.718Z,-5.94
2022-11-29T23:35:05.307Z,-5.95
2022-11-29T23:37:36.269Z,-5.95
2022-11-29T23:40:07.828Z,-5.95
2022-11-29T23:42:40.508Z,-5.95
2022-11-29T23:45:11.467Z,-5.97
2022-11-29T23:47:42.374Z,-6.01
2022-11-29T23:50:13.269Z,-6.05
2022-11-29T23:52:44.261Z,-6.08
2022-11-29T23:55:16.602Z,-6.11
2022-11-29T23:57:47.398Z,-6.16
